Taipak, Kazakhstan
Current Conditions -  °F | °C
As of 1:00 AM on Saturday 25 Oct 2014 (Local Time) from UATG Reporting Station
Haze Haze  
Wind Chill: -10°   Ceiling: 15000
Heat Index: -5°   Visibility: 3mi
Dew Point: -7°   Wind: 7mph
Humidity: 86%   Direction: 350°N
Pressure: 30.3"   Gusts: NA
Location:  49.05°N, 51.87°E
Report Text: UATG 242100Z 35003MPS 5000 BR BKN150 M05/M07 Q1026 R32/CLRD70NOSIG RMK QFE771/1029
Loading
Personal Weather Stations






























Interactive Weather Map
Tropical Storm Tracking
New forecast layout! Learn more

10-Day Weather Forecast

Advertisements
Track Severe Weather on mobile